createdAt,value
2022-09-30T00:00:52.168Z,4.40
2022-09-30T00:03:39.275Z,3.83
2022-09-30T00:06:28.015Z,4.97
2022-09-30T00:09:15.811Z,5.60
2022-09-30T00:12:05.031Z,4.23
2022-09-30T00:14:52.593Z,4.40
2022-09-30T00:17:40.153Z,3.50
2022-09-30T00:20:27.440Z,3.33
2022-09-30T00:23:14.682Z,3.47
2022-09-30T00:26:04.672Z,7.20
2022-09-30T00:28:55.968Z,6.40
2022-09-30T00:31:43.430Z,3.73
2022-09-30T00:34:30.561Z,4.00
2022-09-30T00:37:17.645Z,6.80
2022-09-30T00:40:04.888Z,3.23
2022-09-30T00:42:52.123Z,4.67
2022-09-30T00:45:40.871Z,3.40
2022-09-30T00:48:33.366Z,3.63
2022-09-30T00:51:29.064Z,3.80
2022-09-30T00:54:19.564Z,3.70
2022-09-30T00:57:09.272Z,4.53
2022-09-30T00:59:56.461Z,3.93
2022-09-30T01:02:48.078Z,5.10
2022-09-30T01:05:36.663Z,3.93
2022-09-30T01:08:25.784Z,3.80
2022-09-30T01:11:13.015Z,3.50
2022-09-30T01:14:05.499Z,3.70
2022-09-30T01:17:02.791Z,3.60
2022-09-30T01:20:47.911Z,8.93
2022-09-30T01:24:13.988Z,6.83
2022-09-30T01:27:35.431Z,4.23
2022-09-30T01:30:24.939Z,4.30
2022-09-30T01:33:30.370Z,4.33
2022-09-30T01:36:32.239Z,3.37
2022-09-30T01:39:35.102Z,4.50
2022-09-30T01:42:29.512Z,3.90
2022-09-30T01:45:20.713Z,4.20
2022-09-30T01:48:17.640Z,3.50
2022-09-30T01:51:10.167Z,3.60
2022-09-30T01:54:03.277Z,3.67
2022-09-30T01:56:56.256Z,3.10
2022-09-30T01:59:49.228Z,3.00
2022-09-30T02:02:42.505Z,3.00
2022-09-30T02:05:36.756Z,4.40
2022-09-30T02:08:31.596Z,3.23
2022-09-30T02:11:26.158Z,7.67
2022-09-30T02:14:19.426Z,3.23
2022-09-30T02:17:13.588Z,2.70
2022-09-30T02:20:05.872Z,3.43
2022-09-30T02:23:01.296Z,4.80
2022-09-30T02:25:57.052Z,3.20
2022-09-30T02:28:56.832Z,3.73
2022-09-30T02:31:47.827Z,4.63
2022-09-30T02:34:39.641Z,3.57
2022-09-30T02:37:32.723Z,5.73
2022-09-30T02:40:27.593Z,3.47
2022-09-30T02:43:17.735Z,3.07
2022-09-30T02:46:16.372Z,3.07
2022-09-30T02:49:10.130Z,3.33
2022-09-30T02:52:15.853Z,2.57
2022-09-30T02:55:16.657Z,4.90
2022-09-30T02:58:13.211Z,3.03
2022-09-30T03:01:01.935Z,3.27
2022-09-30T03:03:52.884Z,2.63
2022-09-30T03:06:40.855Z,5.13
2022-09-30T03:09:29.452Z,3.97
2022-09-30T03:12:33.251Z,6.70
2022-09-30T03:15:39.888Z,4.93
2022-09-30T03:18:54.827Z,3.27
2022-09-30T03:22:00.918Z,3.00
2022-09-30T03:25:15.452Z,6.33
2022-09-30T03:28:18.512Z,2.90
2022-09-30T03:31:15.627Z,7.13
2022-09-30T03:34:15.296Z,3.93
2022-09-30T03:37:09.370Z,3.10
2022-09-30T03:40:02.439Z,2.73
2022-09-30T03:42:55.066Z,3.13
2022-09-30T03:45:53.778Z,3.10
2022-09-30T03:48:42.695Z,2.93
2022-09-30T03:51:32.184Z,3.20
2022-09-30T03:54:19.402Z,3.13
2022-09-30T03:57:06.900Z,6.23
2022-09-30T03:59:54.279Z,2.83
2022-09-30T04:02:41.724Z,4.40
2022-09-30T04:05:29.057Z,3.67
2022-09-30T04:08:18.224Z,2.97
2022-09-30T04:11:06.383Z,3.60
2022-09-30T04:13:53.940Z,7.20
2022-09-30T04:16:41.533Z,3.70
2022-09-30T04:19:28.530Z,4.13
2022-09-30T04:22:15.854Z,3.37
2022-09-30T04:25:04.445Z,3.87
2022-09-30T04:27:51.482Z,3.73
2022-09-30T04:30:39.528Z,4.20
2022-09-30T04:33:26.940Z,3.40
2022-09-30T04:36:14.211Z,3.33
2022-09-30T04:39:01.585Z,2.80
2022-09-30T04:41:50.573Z,3.90
2022-09-30T04:44:37.751Z,3.13
2022-09-30T04:47:25.322Z,3.10
2022-09-30T04:50:13.360Z,3.27
2022-09-30T04:53:00.320Z,3.73
2022-09-30T04:55:47.937Z,3.10
2022-09-30T04:58:37.367Z,3.00
2022-09-30T05:01:24.782Z,4.83
2022-09-30T05:04:12.904Z,3.20
2022-09-30T05:07:00.501Z,6.00
2022-09-30T05:09:47.734Z,2.90
2022-09-30T05:12:35.202Z,5.23
2022-09-30T05:15:23.727Z,3.10
2022-09-30T05:18:11.804Z,5.33
2022-09-30T05:20:59.574Z,4.43
2022-09-30T05:23:47.322Z,4.83
2022-09-30T05:26:34.439Z,2.90
2022-09-30T05:29:21.460Z,3.67
2022-09-30T05:32:09.742Z,3.67
2022-09-30T05:34:56.920Z,2.90
2022-09-30T05:37:44.002Z,3.13
2022-09-30T05:40:31.297Z,3.20
2022-09-30T05:43:18.389Z,3.30
2022-09-30T05:46:05.762Z,2.87
2022-09-30T05:48:54.547Z,3.53
2022-09-30T05:51:41.575Z,3.70
2022-09-30T05:54:28.803Z,3.30
2022-09-30T05:57:15.852Z,3.40
2022-09-30T06:00:03.387Z,9.17
2022-09-30T06:02:58.455Z,4.13
2022-09-30T06:05:28.455Z,4.93
2022-09-30T06:07:57.064Z,7.70
2022-09-30T06:10:25.637Z,5.27
2022-09-30T06:12:54.232Z,7.67
2022-09-30T06:15:22.866Z,7.20
2022-09-30T06:17:54.727Z,7.83
2022-09-30T06:20:23.659Z,6.10
2022-09-30T06:22:54.633Z,5.07
2022-09-30T06:25:23.336Z,6.13
2022-09-30T06:27:51.922Z,4.97
2022-09-30T06:30:20.481Z,4.80
2022-09-30T06:32:49.201Z,6.77
2022-09-30T06:35:19.452Z,5.57
2022-09-30T06:37:50.426Z,4.90
2022-09-30T06:40:21.205Z,4.87
2022-09-30T06:42:52.763Z,7.17
2022-09-30T06:45:31.675Z,4.73
2022-09-30T06:48:03.077Z,5.93
2022-09-30T06:50:32.601Z,3.20
2022-09-30T06:53:02.543Z,5.30
2022-09-30T06:55:32.667Z,4.30
2022-09-30T06:58:01.394Z,3.33
2022-09-30T07:00:30.082Z,3.43
2022-09-30T07:02:58.891Z,3.00
2022-09-30T07:05:27.558Z,4.77
2022-09-30T07:07:56.266Z,3.13
2022-09-30T07:10:25.089Z,6.10
2022-09-30T07:12:55.792Z,3.60
2022-09-30T07:15:24.418Z,3.33
2022-09-30T07:17:53.793Z,4.70
2022-09-30T07:20:22.383Z,3.90
2022-09-30T07:22:50.970Z,6.43
2022-09-30T07:25:19.861Z,3.07
2022-09-30T07:27:48.504Z,6.43
2022-09-30T07:30:26.712Z,3.03
2022-09-30T07:32:55.841Z,4.27
2022-09-30T07:35:24.440Z,4.50
2022-09-30T07:37:53.055Z,3.70
2022-09-30T07:40:21.663Z,5.43
2022-09-30T07:42:50.335Z,3.53
2022-09-30T07:45:21.005Z,5.57
2022-09-30T07:47:53.442Z,3.13
2022-09-30T07:50:22.835Z,3.53
2022-09-30T07:52:51.466Z,5.27
2022-09-30T07:55:20.101Z,3.20
2022-09-30T07:57:49.716Z,3.67
2022-09-30T08:00:43.441Z,4.40
2022-09-30T08:03:08.525Z,2.87
2022-09-30T08:05:41.091Z,4.90
2022-09-30T08:08:09.704Z,3.33
2022-09-30T08:10:38.357Z,4.13
2022-09-30T08:13:07.087Z,4.22
2022-09-30T08:15:37.595Z,3.17
2022-09-30T08:18:06.421Z,4.85
2022-09-30T08:20:35.353Z,2.90
2022-09-30T08:23:03.982Z,4.40
2022-09-30T08:25:32.629Z,2.92
2022-09-30T08:28:01.346Z,3.58
2022-09-30T08:30:30.008Z,4.63
2022-09-30T08:33:00.932Z,4.13
2022-09-30T08:35:29.557Z,5.93
2022-09-30T08:37:58.393Z,4.00
2022-09-30T08:40:30.129Z,3.10
2022-09-30T08:43:25.721Z,5.10
2022-09-30T08:46:06.013Z,2.95
2022-09-30T08:48:49.762Z,2.90
2022-09-30T08:51:31.974Z,2.85
2022-09-30T08:54:04.517Z,3.30
2022-09-30T08:56:34.640Z,2.58
2022-09-30T08:59:09.429Z,2.30
2022-09-30T09:01:41.721Z,6.20
2022-09-30T09:04:11.937Z,5.35
2022-09-30T09:06:50.429Z,3.45
2022-09-30T09:09:49.441Z,2.78
2022-09-30T09:12:35.068Z,2.50
2022-09-30T09:15:23.156Z,4.97
2022-09-30T09:18:23.774Z,2.65
2022-09-30T09:20:59.921Z,3.35
2022-09-30T09:23:32.837Z,2.95
2022-09-30T09:26:01.787Z,2.53
2022-09-30T09:28:37.429Z,6.00
2022-09-30T09:31:06.940Z,10.98
2022-09-30T09:33:40.537Z,4.82
2022-09-30T09:36:27.762Z,5.78
2022-09-30T09:39:15.461Z,8.13
2022-09-30T09:41:51.485Z,2.72
2022-09-30T09:44:29.236Z,2.60
2022-09-30T09:47:05.592Z,2.47
2022-09-30T09:49:40.136Z,2.42
2022-09-30T09:52:54.870Z,3.08
2022-09-30T09:55:24.724Z,3.05
2022-09-30T09:58:08.012Z,6.30
2022-09-30T10:00:54.381Z,2.72
2022-09-30T10:03:26.650Z,4.35
2022-09-30T10:06:04.475Z,2.00
2022-09-30T10:08:37.165Z,3.25
2022-09-30T10:11:08.180Z,3.35
2022-09-30T10:13:44.892Z,2.40
2022-09-30T10:16:29.644Z,2.55
2022-09-30T10:18:58.886Z,2.30
2022-09-30T10:21:29.686Z,2.55
2022-09-30T10:23:59.978Z,4.30
2022-09-30T10:26:30.138Z,3.22
2022-09-30T10:29:00.976Z,3.20
2022-09-30T10:31:33.705Z,3.90
2022-09-30T10:34:11.276Z,3.80
2022-09-30T10:36:44.756Z,3.70
2022-09-30T10:39:24.065Z,3.67
2022-09-30T10:42:01.366Z,2.90
2022-09-30T10:44:31.033Z,3.92
2022-09-30T10:47:03.621Z,3.22
2022-09-30T10:49:37.946Z,4.57
2022-09-30T10:52:07.636Z,3.88
2022-09-30T10:54:50.754Z,4.22
2022-09-30T10:57:23.894Z,4.75
2022-09-30T10:59:57.269Z,5.88
2022-09-30T11:02:32.165Z,3.38
2022-09-30T11:05:13.559Z,4.32
2022-09-30T11:07:47.774Z,7.25
2022-09-30T11:10:34.158Z,5.95
2022-09-30T11:13:09.895Z,3.78
2022-09-30T11:15:57.772Z,3.00
2022-09-30T11:18:37.215Z,2.70
2022-09-30T11:21:11.911Z,2.78
2022-09-30T11:23:46.148Z,4.22
2022-09-30T11:26:33.023Z,5.10
2022-09-30T11:29:32.209Z,4.53
2022-09-30T11:32:08.402Z,3.20
2022-09-30T11:34:51.102Z,3.45
2022-09-30T11:37:33.810Z,3.80
2022-09-30T11:40:27.626Z,5.63
2022-09-30T11:43:11.053Z,3.25
2022-09-30T11:45:56.891Z,4.80
2022-09-30T11:48:49.259Z,5.13
2022-09-30T11:51:26.166Z,4.65
2022-09-30T11:54:06.665Z,3.85
2022-09-30T11:56:48.063Z,3.33
2022-09-30T11:59:26.319Z,4.57
2022-09-30T12:01:57.950Z,3.97
2022-09-30T12:04:31.645Z,3.22
2022-09-30T12:07:05.387Z,4.00
2022-09-30T12:09:40.316Z,3.58
2022-09-30T12:12:16.536Z,5.03
2022-09-30T12:14:51.568Z,5.25
2022-09-30T12:17:27.963Z,4.95
2022-09-30T12:19:59.753Z,3.88
2022-09-30T12:22:33.433Z,3.78
2022-09-30T12:25:04.069Z,6.22
2022-09-30T12:27:40.053Z,4.43
2022-09-30T12:30:20.520Z,6.85
2022-09-30T12:33:22.847Z,4.97
2022-09-30T12:36:36.955Z,3.42
2022-09-30T12:39:59.451Z,5.13
2022-09-30T12:43:24.074Z,4.07
2022-09-30T12:46:16.926Z,4.13
2022-09-30T12:48:50.257Z,3.78
2022-09-30T12:51:31.288Z,3.78
2022-09-30T12:54:04.567Z,4.95
2022-09-30T12:56:35.021Z,6.95
2022-09-30T12:59:04.000Z,3.63
2022-09-30T13:01:38.898Z,3.20
2022-09-30T13:04:20.273Z,3.60
2022-09-30T13:07:16.972Z,3.95
2022-09-30T13:10:07.700Z,4.90
2022-09-30T13:12:45.753Z,5.20
2022-09-30T13:15:40.620Z,5.95
2022-09-30T13:19:01.433Z,5.15
2022-09-30T13:21:32.151Z,6.53
2022-09-30T13:24:01.844Z,6.97
2022-09-30T13:27:09.527Z,6.70
2022-09-30T13:29:40.231Z,6.13
2022-09-30T13:32:12.424Z,11.40
2022-09-30T13:35:30.746Z,7.43
2022-09-30T13:38:18.050Z,6.55
2022-09-30T13:41:01.916Z,4.97
2022-09-30T13:43:39.378Z,7.75
2022-09-30T13:46:14.458Z,4.88
2022-09-30T13:48:52.133Z,4.95
2022-09-30T13:51:24.102Z,4.60
2022-09-30T13:53:56.181Z,4.35
2022-09-30T13:56:29.215Z,5.03
2022-09-30T13:59:36.083Z,5.97
2022-09-30T14:02:55.189Z,5.60
2022-09-30T14:05:54.217Z,4.45
2022-09-30T14:09:00.447Z,5.70
2022-09-30T14:11:49.313Z,5.50
2022-09-30T14:15:06.380Z,4.07
2022-09-30T14:18:05.623Z,6.85
2022-09-30T14:20:49.747Z,3.70
2022-09-30T14:23:20.666Z,4.57
2022-09-30T14:25:59.767Z,4.90
2022-09-30T14:28:35.802Z,6.82
2022-09-30T14:31:13.314Z,4.85
2022-09-30T14:33:44.629Z,3.80
2022-09-30T14:36:17.607Z,7.82
2022-09-30T14:38:50.133Z,5.82
2022-09-30T14:41:23.101Z,3.58
2022-09-30T14:43:56.589Z,3.97
2022-09-30T14:46:35.424Z,3.28
2022-09-30T14:49:09.645Z,3.50
2022-09-30T14:51:43.569Z,3.17
2022-09-30T14:54:21.910Z,3.75
2022-09-30T14:56:55.480Z,3.28
2022-09-30T14:59:27.254Z,4.43
2022-09-30T15:02:01.624Z,3.80
2022-09-30T15:04:34.327Z,4.47
2022-09-30T15:07:07.233Z,5.88
2022-09-30T15:09:38.342Z,4.85
2022-09-30T15:12:14.326Z,4.40
2022-09-30T15:14:48.894Z,3.85
2022-09-30T15:17:21.488Z,3.80
2022-09-30T15:19:50.848Z,3.40
2022-09-30T15:22:21.471Z,4.20
2022-09-30T15:24:53.665Z,4.43
2022-09-30T15:27:26.982Z,8.40
2022-09-30T15:29:56.653Z,4.68
2022-09-30T15:32:27.765Z,4.38
2022-09-30T15:34:58.702Z,3.20
2022-09-30T15:37:33.581Z,4.28
2022-09-30T15:40:21.800Z,2.92
2022-09-30T15:42:59.639Z,2.45
2022-09-30T15:45:36.015Z,5.90
2022-09-30T15:48:08.540Z,3.13
2022-09-30T15:50:39.808Z,5.85
2022-09-30T15:53:20.160Z,3.15
2022-09-30T15:55:55.783Z,3.00
2022-09-30T15:58:38.928Z,4.07
2022-09-30T16:01:23.360Z,2.45
2022-09-30T16:03:55.871Z,2.55
2022-09-30T16:06:32.611Z,6.45
2022-09-30T16:09:06.614Z,2.80
2022-09-30T16:11:41.042Z,4.70
2022-09-30T16:14:19.659Z,2.65
2022-09-30T16:16:51.068Z,2.97
2022-09-30T16:19:20.615Z,4.22
2022-09-30T16:21:51.811Z,4.35
2022-09-30T16:24:47.240Z,3.80
2022-09-30T16:27:34.009Z,3.88
2022-09-30T16:30:06.548Z,3.30
2022-09-30T16:32:40.786Z,2.90
2022-09-30T16:35:20.777Z,3.40
2022-09-30T16:37:50.541Z,2.40
2022-09-30T16:40:25.479Z,5.68
2022-09-30T16:42:55.894Z,3.10
2022-09-30T16:45:27.205Z,2.75
2022-09-30T16:47:57.933Z,3.25
2022-09-30T16:50:33.931Z,4.80
2022-09-30T16:53:02.567Z,3.97
2022-09-30T16:55:31.628Z,6.20
2022-09-30T16:58:00.875Z,7.53
2022-09-30T17:00:30.844Z,4.32
2022-09-30T17:02:59.900Z,3.95
2022-09-30T17:05:28.884Z,5.80
2022-09-30T17:07:59.986Z,3.50
2022-09-30T17:10:31.352Z,3.40
2022-09-30T17:13:01.322Z,3.85
2022-09-30T17:15:33.872Z,3.58
2022-09-30T17:18:08.137Z,4.13
2022-09-30T17:20:37.690Z,6.45
2022-09-30T17:23:08.291Z,3.05
2022-09-30T17:25:42.214Z,4.93
2022-09-30T17:28:13.439Z,5.90
2022-09-30T17:30:47.803Z,3.40
2022-09-30T17:33:17.816Z,2.92
2022-09-30T17:35:46.531Z,2.85
2022-09-30T17:38:15.287Z,3.03
2022-09-30T17:41:03.543Z,3.80
2022-09-30T17:43:32.205Z,4.60
2022-09-30T17:46:02.363Z,3.00
2022-09-30T17:48:31.109Z,2.60
2022-09-30T17:51:00.173Z,2.90
2022-09-30T17:53:29.343Z,2.72
2022-09-30T17:56:06.641Z,4.43
2022-09-30T17:58:35.239Z,3.33
2022-09-30T18:01:09.273Z,3.72
2022-09-30T18:03:38.422Z,2.90
2022-09-30T18:06:07.967Z,4.53
2022-09-30T18:08:36.944Z,3.38
2022-09-30T18:11:05.844Z,4.82
2022-09-30T18:13:34.778Z,2.47
2022-09-30T18:16:09.051Z,6.93
2022-09-30T18:18:37.700Z,4.15
2022-09-30T18:21:06.501Z,3.20
2022-09-30T18:23:35.314Z,4.10
2022-09-30T18:26:04.047Z,4.95
2022-09-30T18:28:32.763Z,3.15
2022-09-30T18:31:09.069Z,4.13
2022-09-30T18:33:37.797Z,4.03
2022-09-30T18:36:06.894Z,2.88
2022-09-30T18:38:35.869Z,3.05
2022-09-30T18:41:08.183Z,3.30
2022-09-30T18:43:36.848Z,4.72
2022-09-30T18:46:07.172Z,3.20
2022-09-30T18:48:37.232Z,3.97
2022-09-30T18:51:06.572Z,3.17
2022-09-30T18:53:35.471Z,4.90
2022-09-30T18:56:05.604Z,6.60
2022-09-30T18:58:34.253Z,4.68
2022-09-30T19:01:04.247Z,3.40
2022-09-30T19:03:33.946Z,3.92
2022-09-30T19:06:09.448Z,7.55
2022-09-30T19:08:38.277Z,6.68
2022-09-30T19:11:14.059Z,4.50
2022-09-30T19:13:44.106Z,7.43
2022-09-30T19:16:13.265Z,5.43
2022-09-30T19:18:42.358Z,5.23
2022-09-30T19:21:16.170Z,4.57
2022-09-30T19:23:45.507Z,9.82
2022-09-30T19:26:15.690Z,13.70
2022-09-30T19:28:44.467Z,15.88
2022-09-30T19:31:17.140Z,17.08
2022-09-30T19:33:56.105Z,12.27
2022-09-30T19:36:27.904Z,10.33
2022-09-30T19:39:10.400Z,9.15
2022-09-30T19:41:40.455Z,12.13
2022-09-30T19:44:09.077Z,7.88
2022-09-30T19:46:37.710Z,10.33
2022-09-30T19:49:06.422Z,9.07
2022-09-30T19:51:36.655Z,6.40
2022-09-30T19:54:07.442Z,6.20
2022-09-30T19:56:38.228Z,5.30
2022-09-30T19:59:07.076Z,5.30
2022-09-30T20:01:36.583Z,5.72
2022-09-30T20:04:24.715Z,6.63
2022-09-30T20:07:16.048Z,5.30
2022-09-30T20:10:03.316Z,7.50
2022-09-30T20:12:50.368Z,4.80
2022-09-30T20:15:53.492Z,6.22
2022-09-30T20:18:42.188Z,5.80
2022-09-30T20:21:29.771Z,15.90
2022-09-30T20:24:19.941Z,6.00
2022-09-30T20:27:07.165Z,6.70
2022-09-30T20:29:54.631Z,5.80
2022-09-30T20:32:41.664Z,5.40
2022-09-30T20:35:28.777Z,6.00
2022-09-30T20:38:24.911Z,7.73
2022-09-30T20:41:13.744Z,6.60
2022-09-30T20:44:03.087Z,7.63
2022-09-30T20:46:50.254Z,8.13
2022-09-30T20:49:37.245Z,6.57
2022-09-30T20:52:24.353Z,6.07
2022-09-30T20:55:11.507Z,6.10
2022-09-30T20:58:00.313Z,6.63
2022-09-30T21:00:47.574Z,6.57
2022-09-30T21:03:36.098Z,6.85
2022-09-30T21:06:27.293Z,7.40
2022-09-30T21:09:14.706Z,7.93
2022-09-30T21:12:02.617Z,6.93
2022-09-30T21:14:50.937Z,6.85
2022-09-30T21:17:38.307Z,16.83
2022-09-30T21:20:25.893Z,7.63
2022-09-30T21:23:16.134Z,8.23
2022-09-30T21:26:09.522Z,8.80
2022-09-30T21:28:56.835Z,8.27
2022-09-30T21:31:45.713Z,13.20
2022-09-30T21:34:34.047Z,8.60
2022-09-30T21:37:21.120Z,8.97
2022-09-30T21:40:10.242Z,9.60
2022-09-30T21:42:57.293Z,7.03
2022-09-30T21:45:45.074Z,7.67
2022-09-30T21:48:34.259Z,7.63
2022-09-30T21:51:21.635Z,8.03
2022-09-30T21:54:10.101Z,7.93
2022-09-30T21:56:57.394Z,7.65
2022-09-30T21:59:48.563Z,10.97
2022-09-30T22:02:37.321Z,7.00
2022-09-30T22:05:25.853Z,7.80
2022-09-30T22:08:13.091Z,8.17
2022-09-30T22:11:00.274Z,7.90
2022-09-30T22:13:48.232Z,7.87
2022-09-30T22:16:36.136Z,7.25
2022-09-30T22:19:23.405Z,7.50
2022-09-30T22:22:12.978Z,8.97
2022-09-30T22:25:00.104Z,7.40
2022-09-30T22:27:47.250Z,8.10
2022-09-30T22:30:35.396Z,7.70
2022-09-30T22:33:40.131Z,8.83
2022-09-30T22:36:44.719Z,8.80
2022-09-30T22:39:33.541Z,8.10
2022-09-30T22:42:20.779Z,7.87
2022-09-30T22:45:09.259Z,8.55
2022-09-30T22:47:56.997Z,7.43
2022-09-30T22:50:44.891Z,7.37
2022-09-30T22:53:32.173Z,7.33
2022-09-30T22:56:21.640Z,7.53
2022-09-30T22:59:09.140Z,9.10
2022-09-30T23:01:56.723Z,8.35
2022-09-30T23:04:44.476Z,7.87
2022-09-30T23:07:31.848Z,9.90
2022-09-30T23:10:18.857Z,8.10
2022-09-30T23:13:08.959Z,8.27
2022-09-30T23:15:59.469Z,9.87
2022-09-30T23:18:47.444Z,8.87
2022-09-30T23:21:34.974Z,8.57
2022-09-30T23:24:22.015Z,7.83
2022-09-30T23:27:09.174Z,8.03
2022-09-30T23:29:57.635Z,7.77
2022-09-30T23:32:45.145Z,7.23
2022-09-30T23:35:32.288Z,8.23
2022-09-30T23:38:19.452Z,8.30
2022-09-30T23:41:07.400Z,7.50
2022-09-30T23:43:55.115Z,7.43
2022-09-30T23:47:04.315Z,6.73
2022-09-30T23:49:51.520Z,8.07
2022-09-30T23:52:38.516Z,7.33
2022-09-30T23:55:25.697Z,8.00
2022-09-30T23:58:13.053Z,7.57
